createdAt,value
2017-11-14T00:00:38.746Z,0.17
2017-11-14T00:03:04.837Z,0.19
2017-11-14T00:05:30.900Z,0.09
2017-11-14T00:07:57.294Z,0.18
2017-11-14T00:10:23.956Z,0.26
2017-11-14T00:12:50.062Z,0.25
2017-11-14T00:15:16.180Z,0.20
2017-11-14T00:17:42.286Z,0.15
2017-11-14T00:20:08.756Z,0.14
2017-11-14T00:22:35.126Z,0.19
2017-11-14T00:25:01.256Z,0.33
2017-11-14T00:27:27.361Z,0.33
2017-11-14T00:29:53.464Z,0.28
2017-11-14T00:32:20.211Z,0.19
2017-11-14T00:34:46.368Z,0.13
2017-11-14T00:37:12.476Z,0.04
2017-11-14T00:39:38.570Z,-0.20
2017-11-14T00:42:04.764Z,-0.13
2017-11-14T00:44:31.242Z,-0.14
2017-11-14T00:46:57.486Z,-0.10
2017-11-14T00:49:23.693Z,-0.10
2017-11-14T00:51:49.850Z,0.00
2017-11-14T00:54:16.000Z,-0.02
2017-11-14T00:56:42.553Z,0.07
2017-11-14T00:59:08.661Z,-0.03
2017-11-14T01:01:34.766Z,-0.05
2017-11-14T01:04:01.802Z,0.03
2017-11-14T01:06:27.923Z,0.09
2017-11-14T01:08:54.602Z,0.18
2017-11-14T01:11:20.799Z,0.22
2017-11-14T01:13:46.966Z,0.07
2017-11-14T01:16:13.084Z,0.04
2017-11-14T01:18:39.213Z,0.08
2017-11-14T01:21:05.814Z,0.04
2017-11-14T01:23:31.952Z,0.05
2017-11-14T01:25:58.696Z,-0.10
2017-11-14T01:28:24.816Z,-0.39
2017-11-14T01:30:50.944Z,-0.32
2017-11-14T01:33:17.449Z,-0.20
2017-11-14T01:35:43.746Z,-0.13
2017-11-14T01:38:09.883Z,-0.06
2017-11-14T01:40:36.171Z,-0.25
2017-11-14T01:43:02.276Z,-0.18
2017-11-14T01:45:29.589Z,-0.20
2017-11-14T01:47:55.707Z,-0.22
2017-11-14T01:50:21.847Z,-0.35
2017-11-14T01:52:48.098Z,-0.35
2017-11-14T01:55:14.588Z,-0.60
2017-11-14T01:57:41.166Z,-0.55
2017-11-14T02:00:07.432Z,-0.67
2017-11-14T02:02:33.588Z,-0.77
2017-11-14T02:04:59.857Z,-0.65
2017-11-14T02:07:26.020Z,-0.68
2017-11-14T02:09:52.101Z,-0.60
2017-11-14T02:12:18.268Z,-0.69
2017-11-14T02:14:44.375Z,-0.57
2017-11-14T02:17:10.531Z,-0.50
2017-11-14T02:19:36.684Z,-0.64
2017-11-14T02:22:03.199Z,-0.54
2017-11-14T02:24:29.263Z,-0.53
2017-11-14T02:27:00.308Z,-0.76
2017-11-14T02:29:26.379Z,-1.05
2017-11-14T02:31:52.496Z,-1.12
2017-11-14T02:34:18.942Z,-1.26
2017-11-14T02:36:45.260Z,-0.94
2017-11-14T02:39:11.628Z,-0.94
2017-11-14T02:41:37.744Z,-0.85
2017-11-14T02:44:03.816Z,-1.05
2017-11-14T02:46:30.275Z,-0.92
2017-11-14T02:48:56.728Z,-1.09
2017-11-14T02:51:22.905Z,-1.05
2017-11-14T02:53:48.979Z,-0.98
2017-11-14T02:56:15.142Z,-1.06
2017-11-14T02:58:41.728Z,-1.13
2017-11-14T03:01:07.956Z,-1.15
2017-11-14T03:03:34.518Z,-1.12
2017-11-14T03:06:00.677Z,-1.21
2017-11-14T03:08:26.816Z,-1.27
2017-11-14T03:10:53.363Z,-1.41
2017-11-14T03:13:19.495Z,-1.38
2017-11-14T03:15:45.702Z,-1.39
2017-11-14T03:18:11.967Z,-1.37
2017-11-14T03:20:38.136Z,-1.36
2017-11-14T03:23:04.716Z,-1.20
2017-11-14T03:25:30.874Z,-1.21
2017-11-14T03:27:56.989Z,-1.12
2017-11-14T03:30:23.081Z,-1.16
2017-11-14T03:32:49.147Z,-1.10
2017-11-14T03:35:15.559Z,-1.52
2017-11-14T03:37:41.608Z,-1.40
2017-11-14T03:40:07.676Z,-1.22
2017-11-14T03:42:34.199Z,-1.11
2017-11-14T03:45:00.305Z,-0.97
2017-11-14T03:47:26.387Z,-0.91
2017-11-14T03:49:52.488Z,-0.84
2017-11-14T03:52:18.560Z,-0.77
2017-11-14T03:54:44.972Z,-0.77
2017-11-14T03:57:11.079Z,-0.62
2017-11-14T03:59:37.249Z,-0.53
2017-11-14T04:02:03.380Z,-0.61
2017-11-14T04:04:29.456Z,-0.58
2017-11-14T04:06:55.967Z,-0.64
2017-11-14T04:09:22.173Z,-0.64
2017-11-14T04:11:48.236Z,-0.65
2017-11-14T04:14:14.463Z,-0.68
2017-11-14T04:16:40.508Z,-0.82
2017-11-14T04:19:06.955Z,-0.89
2017-11-14T04:21:33.052Z,-1.11
2017-11-14T04:23:59.135Z,-1.00
2017-11-14T04:26:25.223Z,-0.87
2017-11-14T04:28:51.317Z,-0.75
2017-11-14T04:31:17.801Z,-0.64
2017-11-14T04:33:43.956Z,-0.43
2017-11-14T04:36:10.135Z,-0.32
2017-11-14T04:38:36.223Z,-0.28
2017-11-14T04:41:02.305Z,-0.28
2017-11-14T04:43:29.009Z,-0.37
2017-11-14T04:45:55.154Z,-0.37
2017-11-14T04:48:21.311Z,-0.42
2017-11-14T04:50:47.539Z,-0.39
2017-11-14T04:53:13.735Z,-0.34
2017-11-14T04:55:40.299Z,-0.31
2017-11-14T04:58:06.590Z,-0.36
2017-11-14T05:00:32.699Z,-0.41
2017-11-14T05:02:58.795Z,-0.39
2017-11-14T05:05:24.853Z,-0.32
2017-11-14T05:07:51.306Z,-0.26
2017-11-14T05:10:17.401Z,-0.23
2017-11-14T05:12:43.526Z,-0.28
2017-11-14T05:15:09.695Z,-0.23
2017-11-14T05:17:38.283Z,-0.15
2017-11-14T05:20:06.071Z,-0.24
2017-11-14T05:22:32.188Z,-0.27
2017-11-14T05:24:58.256Z,-0.33
2017-11-14T05:27:24.362Z,-0.30
2017-11-14T05:29:50.680Z,-0.24
2017-11-14T05:32:17.146Z,-0.20
2017-11-14T05:34:43.359Z,-0.24
2017-11-14T05:37:09.652Z,-0.31
2017-11-14T05:39:36.133Z,-0.31
2017-11-14T05:42:02.402Z,-0.37
2017-11-14T05:44:28.514Z,-0.31
2017-11-14T05:46:54.727Z,-0.23
2017-11-14T05:49:20.867Z,-0.26
2017-11-14T05:51:47.534Z,-0.30
2017-11-14T05:54:13.649Z,-0.21
2017-11-14T05:56:39.789Z,-0.22
2017-11-14T05:59:05.969Z,-0.22
2017-11-14T06:01:32.224Z,-0.23
2017-11-14T06:03:58.845Z,-0.16
2017-11-14T06:06:24.948Z,-0.14
2017-11-14T06:08:51.158Z,-0.21
2017-11-14T06:11:17.268Z,-0.28
2017-11-14T06:13:43.392Z,-0.39
2017-11-14T06:16:10.515Z,-0.30
2017-11-14T06:18:36.736Z,-0.21
2017-11-14T06:21:02.947Z,-0.18
2017-11-14T06:23:29.105Z,-0.18
2017-11-14T06:25:55.272Z,-0.10
2017-11-14T06:28:21.834Z,-0.10
2017-11-14T06:30:48.073Z,-0.17
2017-11-14T06:33:14.254Z,-0.21
2017-11-14T06:35:40.421Z,-0.31
2017-11-14T06:38:06.612Z,-0.29
2017-11-14T06:40:33.089Z,-0.40
2017-11-14T06:42:59.261Z,-0.19
2017-11-14T06:45:25.425Z,-0.08
2017-11-14T06:47:52.170Z,0.02
2017-11-14T06:50:18.288Z,-0.04
2017-11-14T06:52:44.418Z,0.15
2017-11-14T06:55:10.625Z,0.18
2017-11-14T06:57:37.127Z,0.20
2017-11-14T07:00:03.905Z,0.32
2017-11-14T07:02:30.096Z,0.30
2017-11-14T07:04:56.328Z,0.29
2017-11-14T07:07:23.338Z,0.26
2017-11-14T07:09:49.649Z,0.37
2017-11-14T07:12:16.053Z,0.42
2017-11-14T07:14:42.396Z,0.41
2017-11-14T07:17:09.350Z,0.49
2017-11-14T07:19:36.140Z,0.36
2017-11-14T07:22:02.547Z,0.40
2017-11-14T07:24:28.881Z,0.45
2017-11-14T07:26:55.918Z,0.48
2017-11-14T07:29:22.495Z,0.49
2017-11-14T07:31:48.813Z,0.46
2017-11-14T07:34:15.104Z,0.72
2017-11-14T07:36:41.505Z,0.58
2017-11-14T07:39:10.573Z,0.65
2017-11-14T07:41:37.190Z,0.42
2017-11-14T07:44:03.655Z,0.66
2017-11-14T07:46:29.941Z,0.72
2017-11-14T07:48:56.274Z,0.80
2017-11-14T07:51:22.934Z,0.85
2017-11-14T07:53:49.179Z,0.80
2017-11-14T07:56:15.432Z,1.01
2017-11-14T07:58:41.673Z,1.04
2017-11-14T08:01:08.160Z,1.26
2017-11-14T08:03:35.593Z,1.05
2017-11-14T08:06:02.101Z,0.76
2017-11-14T08:08:28.361Z,0.88
2017-11-14T08:10:54.537Z,0.86
2017-11-14T08:13:20.762Z,0.89
2017-11-14T08:15:47.727Z,0.85
2017-11-14T08:18:14.035Z,1.00
2017-11-14T08:20:40.249Z,0.87
2017-11-14T08:23:06.450Z,0.80
2017-11-14T08:25:32.631Z,0.95
2017-11-14T08:27:59.254Z,1.12
2017-11-14T08:30:26.465Z,1.19
2017-11-14T08:32:52.612Z,1.16
2017-11-14T08:35:18.797Z,1.44
2017-11-14T08:37:44.984Z,1.61
2017-11-14T08:40:11.624Z,1.70
2017-11-14T08:42:38.182Z,1.66
2017-11-14T08:45:05.623Z,1.63
2017-11-14T08:47:31.926Z,1.68
2017-11-14T08:49:58.094Z,1.70
2017-11-14T08:52:24.560Z,1.87
2017-11-14T08:54:50.777Z,2.02
2017-11-14T08:57:16.979Z,2.08
2017-11-14T08:59:43.467Z,2.11
2017-11-14T09:02:09.626Z,2.06
2017-11-14T09:04:35.768Z,2.03
2017-11-14T09:07:02.330Z,2.01
2017-11-14T09:09:28.439Z,2.02
2017-11-14T09:11:54.966Z,2.06
2017-11-14T09:14:21.113Z,2.19
2017-11-14T09:16:47.246Z,2.18
2017-11-14T09:19:13.685Z,2.35
2017-11-14T09:21:39.872Z,2.23
2017-11-14T09:24:05.985Z,2.16
2017-11-14T09:26:32.175Z,1.97
2017-11-14T09:28:58.347Z,2.01
2017-11-14T09:31:24.834Z,1.69
2017-11-14T09:33:50.935Z,1.77
2017-11-14T09:36:17.061Z,1.95
2017-11-14T09:38:43.882Z,1.98
2017-11-14T09:41:10.131Z,2.23
2017-11-14T09:43:36.243Z,2.34
2017-11-14T09:46:02.807Z,2.52
2017-11-14T09:48:28.982Z,2.52
2017-11-14T09:50:55.132Z,2.47
2017-11-14T09:53:21.332Z,2.59
2017-11-14T09:55:47.480Z,2.71
2017-11-14T09:58:13.940Z,2.70
2017-11-14T10:00:39.984Z,2.72
2017-11-14T10:03:06.058Z,2.75
2017-11-14T10:05:32.181Z,2.84
2017-11-14T10:07:58.236Z,3.07
2017-11-14T10:10:24.773Z,3.24
2017-11-14T10:12:50.942Z,3.59
2017-11-14T10:15:17.240Z,3.77
2017-11-14T10:17:43.372Z,3.87
2017-11-14T10:20:09.434Z,3.99
2017-11-14T10:22:35.818Z,3.88
2017-11-14T10:25:01.954Z,3.82
2017-11-14T10:27:28.174Z,3.75
2017-11-14T10:29:54.306Z,3.77
2017-11-14T10:32:20.468Z,3.89
2017-11-14T10:34:46.907Z,3.96
2017-11-14T10:37:12.938Z,3.99
2017-11-14T10:39:39.008Z,3.89
2017-11-14T10:42:05.406Z,3.96
2017-11-14T10:44:31.578Z,4.03
2017-11-14T10:46:58.462Z,4.05
2017-11-14T10:49:24.566Z,4.06
2017-11-14T10:51:50.655Z,4.01
2017-11-14T10:54:17.156Z,4.06
2017-11-14T10:56:43.293Z,4.11
2017-11-14T10:59:09.423Z,3.96
2017-11-14T11:01:35.509Z,3.96
2017-11-14T11:04:01.564Z,3.86
2017-11-14T11:06:28.078Z,4.15
2017-11-14T11:08:54.157Z,4.45
2017-11-14T11:11:20.304Z,4.48
2017-11-14T11:13:46.501Z,4.45
2017-11-14T11:16:12.778Z,4.51
2017-11-14T11:18:39.330Z,4.33
2017-11-14T11:21:05.384Z,4.28
2017-11-14T11:23:31.455Z,4.41
2017-11-14T11:25:57.581Z,4.43
2017-11-14T11:28:23.648Z,4.56
2017-11-14T11:30:50.133Z,4.44
2017-11-14T11:33:16.371Z,4.51
2017-11-14T11:35:42.504Z,4.49
2017-11-14T11:38:09.070Z,4.48
2017-11-14T11:40:35.213Z,4.52
2017-11-14T11:43:01.999Z,4.62
2017-11-14T11:45:28.141Z,4.65
2017-11-14T11:47:54.195Z,4.67
2017-11-14T11:50:20.283Z,4.69
2017-11-14T11:52:46.365Z,4.69
2017-11-14T11:55:12.786Z,4.76
2017-11-14T11:57:38.856Z,4.84
2017-11-14T12:00:04.959Z,4.85
2017-11-14T12:02:31.105Z,4.78
2017-11-14T12:04:57.233Z,4.65
2017-11-14T12:07:23.739Z,4.68
2017-11-14T12:09:49.828Z,4.64
2017-11-14T12:12:15.919Z,4.63
2017-11-14T12:14:42.048Z,4.60
2017-11-14T12:17:08.280Z,4.71
2017-11-14T12:19:34.788Z,4.77
2017-11-14T12:22:00.798Z,4.64
2017-11-14T12:24:26.952Z,4.74
2017-11-14T12:26:53.557Z,4.77
2017-11-14T12:29:19.639Z,4.72
2017-11-14T12:31:45.701Z,4.70
2017-11-14T12:34:11.754Z,4.63
2017-11-14T12:36:37.940Z,4.77
2017-11-14T12:39:04.498Z,4.97
2017-11-14T12:41:30.627Z,5.01
2017-11-14T12:43:56.776Z,5.04
2017-11-14T12:46:22.895Z,5.09
2017-11-14T12:48:49.004Z,5.16
2017-11-14T12:51:15.489Z,5.14
2017-11-14T12:53:41.871Z,4.98
2017-11-14T12:56:07.973Z,4.83
2017-11-14T12:58:34.094Z,4.83
2017-11-14T13:01:00.203Z,4.89
2017-11-14T13:03:26.633Z,4.93
2017-11-14T13:05:52.732Z,4.96
2017-11-14T13:08:18.841Z,5.11
2017-11-14T13:10:45.341Z,4.73
2017-11-14T13:13:11.526Z,4.63
2017-11-14T13:15:37.625Z,4.56
2017-11-14T13:18:04.134Z,4.81
2017-11-14T13:20:30.263Z,4.89
2017-11-14T13:22:56.380Z,4.68
2017-11-14T13:25:22.828Z,4.67
2017-11-14T13:27:48.912Z,4.39
2017-11-14T13:30:14.953Z,4.68
2017-11-14T13:32:41.004Z,4.87
2017-11-14T13:35:07.124Z,4.96
2017-11-14T13:37:33.619Z,4.96
2017-11-14T13:39:59.695Z,5.01
2017-11-14T13:42:25.795Z,5.24
2017-11-14T13:44:51.906Z,6.01
2017-11-14T13:47:18.119Z,5.53
2017-11-14T13:49:44.648Z,5.30
2017-11-14T13:52:10.811Z,5.09
2017-11-14T13:54:36.938Z,5.00
2017-11-14T13:57:03.141Z,4.91
2017-11-14T13:59:29.225Z,4.92
2017-11-14T14:01:55.657Z,4.90
2017-11-14T14:04:21.757Z,5.57
2017-11-14T14:06:47.853Z,5.40
2017-11-14T14:09:14.482Z,5.24
2017-11-14T14:11:40.703Z,5.08
2017-11-14T14:14:07.171Z,5.01
2017-11-14T14:16:33.618Z,4.96
2017-11-14T14:18:59.705Z,4.88
2017-11-14T14:21:25.837Z,4.87
2017-11-14T14:23:52.379Z,4.88
2017-11-14T14:26:18.533Z,4.86
2017-11-14T14:28:44.685Z,4.86
2017-11-14T14:31:10.774Z,4.87
2017-11-14T14:33:36.888Z,4.88
2017-11-14T14:36:03.369Z,4.85
2017-11-14T14:38:29.463Z,4.81
2017-11-14T14:40:55.746Z,4.75
2017-11-14T14:43:21.937Z,4.69
2017-11-14T14:45:48.084Z,4.66
2017-11-14T14:48:17.804Z,4.53
2017-11-14T14:50:44.202Z,4.44
2017-11-14T14:53:10.491Z,4.40
2017-11-14T14:55:36.845Z,4.29
2017-11-14T14:58:03.037Z,4.27
2017-11-14T15:00:29.767Z,4.24
2017-11-14T15:02:56.979Z,4.03
2017-11-14T15:05:23.222Z,3.96
2017-11-14T15:07:49.529Z,3.86
2017-11-14T15:10:15.957Z,3.82
2017-11-14T15:12:42.749Z,3.81
2017-11-14T15:15:09.036Z,3.79
2017-11-14T15:17:35.363Z,3.75
2017-11-14T15:20:01.859Z,3.82
2017-11-14T15:22:28.259Z,3.88
2017-11-14T15:24:54.904Z,3.85
2017-11-14T15:27:21.287Z,3.81
2017-11-14T15:29:54.693Z,3.81
2017-11-14T15:32:21.069Z,3.68
2017-11-14T15:34:48.563Z,3.89
2017-11-14T15:37:14.874Z,3.80
2017-11-14T15:39:41.221Z,3.96
2017-11-14T15:42:07.949Z,3.78
2017-11-14T15:44:34.236Z,3.88
2017-11-14T15:47:00.505Z,4.01
2017-11-14T15:49:27.162Z,4.04
2017-11-14T15:51:53.366Z,4.08
2017-11-14T15:54:19.646Z,4.07
2017-11-14T15:56:45.834Z,4.06
2017-11-14T15:59:12.216Z,4.06
2017-11-14T16:01:38.798Z,3.99
2017-11-14T16:04:05.068Z,3.65
2017-11-14T16:06:31.227Z,3.48
2017-11-14T16:08:57.699Z,3.28
2017-11-14T16:11:23.991Z,3.36
2017-11-14T16:13:50.508Z,3.31
2017-11-14T16:16:17.466Z,3.28
2017-11-14T16:18:43.711Z,3.43
2017-11-14T16:21:09.946Z,3.09
2017-11-14T16:23:36.194Z,3.09
2017-11-14T16:26:02.882Z,3.08
2017-11-14T16:28:29.168Z,3.13
2017-11-14T16:30:56.093Z,3.20
2017-11-14T16:33:22.462Z,3.37
2017-11-14T16:35:48.954Z,3.41
2017-11-14T16:38:15.497Z,3.18
2017-11-14T16:40:41.626Z,3.16
2017-11-14T16:43:07.829Z,3.04
2017-11-14T16:48:07.287Z,2.80
2017-11-14T16:50:33.918Z,2.81
2017-11-14T16:53:00.135Z,2.83
2017-11-14T16:55:26.367Z,2.97
2017-11-14T16:57:52.616Z,2.99
2017-11-14T17:00:18.744Z,2.85
2017-11-14T17:02:45.425Z,2.64
2017-11-14T17:05:11.668Z,2.47
2017-11-14T17:07:37.908Z,2.47
2017-11-14T17:10:04.826Z,2.64
2017-11-14T17:12:31.082Z,2.60
2017-11-14T17:14:57.336Z,2.51
2017-11-14T17:17:23.576Z,2.65
2017-11-14T17:19:49.759Z,2.49
2017-11-14T17:22:16.388Z,2.51
2017-11-14T17:24:42.681Z,2.43
2017-11-14T17:27:09.389Z,2.38
2017-11-14T17:29:39.888Z,2.24
2017-11-14T17:32:06.239Z,2.19
2017-11-14T17:34:32.819Z,2.09
2017-11-14T17:36:59.183Z,1.98
2017-11-14T17:39:25.470Z,1.83
2017-11-14T17:41:52.065Z,1.57
2017-11-14T17:44:18.341Z,1.40
2017-11-14T17:46:44.555Z,1.22
2017-11-14T17:49:11.254Z,1.19
2017-11-14T17:51:37.528Z,1.53
2017-11-14T17:54:03.696Z,1.69
2017-11-14T17:56:30.293Z,1.81
2017-11-14T17:58:57.078Z,1.88
2017-11-14T18:01:23.261Z,1.92
2017-11-14T18:03:49.438Z,1.85
2017-11-14T18:06:15.586Z,1.83
2017-11-14T18:08:42.390Z,1.87
2017-11-14T18:11:08.873Z,1.62
2017-11-14T18:13:41.576Z,1.59
2017-11-14T18:16:09.138Z,1.45
2017-11-14T18:18:35.531Z,1.45
2017-11-14T18:21:01.795Z,1.57
2017-11-14T18:23:29.087Z,1.68
2017-11-14T18:25:56.494Z,1.70
2017-11-14T18:28:23.326Z,1.76
2017-11-14T18:30:49.718Z,1.72
2017-11-14T18:33:16.581Z,1.60
2017-11-14T18:35:43.263Z,1.67
2017-11-14T18:38:09.520Z,1.62
2017-11-14T18:40:36.138Z,1.54
2017-11-14T18:43:02.347Z,1.64
2017-11-14T18:45:28.773Z,1.89
2017-11-14T18:47:55.117Z,2.06
2017-11-14T18:50:21.502Z,2.08
2017-11-14T18:52:48.195Z,1.96
2017-11-14T18:55:14.498Z,1.83
2017-11-14T18:57:40.906Z,1.69
2017-11-14T19:00:07.220Z,1.86
2017-11-14T19:02:33.535Z,1.86
2017-11-14T19:05:00.143Z,1.88
2017-11-14T19:07:26.419Z,1.79
2017-11-14T19:09:52.786Z,1.89
2017-11-14T19:12:19.214Z,1.93
2017-11-14T19:14:45.599Z,1.92
2017-11-14T19:17:12.440Z,1.89
2017-11-14T19:19:38.998Z,1.81
2017-11-14T19:22:11.837Z,1.94
2017-11-14T19:24:39.709Z,1.94
2017-11-14T19:27:06.250Z,1.99
2017-11-14T19:29:32.801Z,1.92
2017-11-14T19:31:59.441Z,2.04
2017-11-14T19:34:26.915Z,2.03
2017-11-14T19:36:53.692Z,2.05
2017-11-14T19:39:21.230Z,2.01
2017-11-14T19:41:48.234Z,2.01
2017-11-14T19:44:15.145Z,1.93
2017-11-14T19:46:41.981Z,1.86
2017-11-14T19:49:08.523Z,1.77
2017-11-14T19:51:35.282Z,1.71
2017-11-14T19:54:01.676Z,1.70
2017-11-14T19:56:28.176Z,1.67
2017-11-14T19:58:54.633Z,1.67
2017-11-14T20:01:21.142Z,1.61
2017-11-14T20:03:48.134Z,1.51
2017-11-14T20:16:02.504Z,1.58
2017-11-14T20:18:29.058Z,1.59
2017-11-14T20:20:55.459Z,1.67
2017-11-14T20:23:22.110Z,1.75
2017-11-14T20:25:49.779Z,1.82
2017-11-14T20:28:16.672Z,1.86
2017-11-14T20:30:43.126Z,1.87
2017-11-14T20:33:10.393Z,1.84
2017-11-14T20:35:36.837Z,1.82
2017-11-14T20:38:03.422Z,1.83
2017-11-14T20:40:30.492Z,1.83
2017-11-14T20:42:56.926Z,1.87
2017-11-14T20:45:23.412Z,1.92
2017-11-14T20:47:50.630Z,2.02
2017-11-14T20:50:16.947Z,2.08
2017-11-14T20:52:43.712Z,2.04
2017-11-14T20:55:10.005Z,2.06
2017-11-14T20:57:36.232Z,2.02
2017-11-14T21:00:02.949Z,1.98
2017-11-14T21:02:29.195Z,2.00
2017-11-14T21:04:55.844Z,2.09
2017-11-14T21:07:22.048Z,2.06
2017-11-14T21:09:48.257Z,2.12
2017-11-14T21:12:16.268Z,2.13
2017-11-14T21:14:42.473Z,1.96
2017-11-14T21:17:08.680Z,1.97
2017-11-14T21:19:35.280Z,2.11
2017-11-14T21:22:02.045Z,2.14
2017-11-14T21:24:28.246Z,2.07
2017-11-14T21:26:54.813Z,2.17
2017-11-14T21:29:20.922Z,2.16
2017-11-14T21:31:47.053Z,2.19
2017-11-14T21:34:13.811Z,2.25
2017-11-14T21:36:39.939Z,2.20
2017-11-14T21:39:06.056Z,2.20
2017-11-14T21:41:32.593Z,2.18
2017-11-14T21:44:01.949Z,2.19
2017-11-14T21:46:28.289Z,2.12
2017-11-14T21:48:54.997Z,2.13
2017-11-14T21:51:21.231Z,2.08
2017-11-14T21:53:47.347Z,2.10
2017-11-14T21:56:13.538Z,2.10
2017-11-14T21:58:40.905Z,2.07
2017-11-14T22:01:07.435Z,2.12
2017-11-14T22:03:33.580Z,2.11
2017-11-14T22:06:00.546Z,2.16
2017-11-14T22:08:26.716Z,2.09
2017-11-14T22:10:52.881Z,2.12
2017-11-14T22:13:19.419Z,2.10
2017-11-14T22:15:45.569Z,2.04
2017-11-14T22:18:11.725Z,2.04
2017-11-14T22:20:38.283Z,2.11
2017-11-14T22:23:04.438Z,2.09
2017-11-14T22:25:30.629Z,2.04
2017-11-14T22:27:56.806Z,2.01
2017-11-14T22:30:23.015Z,2.03
2017-11-14T22:32:49.603Z,2.03
2017-11-14T22:35:15.832Z,2.01
2017-11-14T22:37:41.979Z,1.98
2017-11-14T22:40:08.129Z,1.98
2017-11-14T22:42:34.297Z,2.01
2017-11-14T22:45:00.751Z,1.96
2017-11-14T22:47:26.981Z,2.00
2017-11-14T22:49:53.125Z,2.08
2017-11-14T22:52:19.317Z,2.11
2017-11-14T22:54:45.499Z,2.12
2017-11-14T22:57:12.072Z,2.07
2017-11-14T22:59:38.143Z,2.05
2017-11-14T23:02:04.320Z,2.03
2017-11-14T23:04:30.566Z,2.01
2017-11-14T23:06:56.804Z,2.00
2017-11-14T23:09:23.313Z,2.05
2017-11-14T23:11:49.517Z,2.02
2017-11-14T23:14:15.683Z,1.97
2017-11-14T23:16:42.210Z,1.99
2017-11-14T23:19:08.332Z,2.00
2017-11-14T23:21:34.513Z,1.97
2017-11-14T23:24:00.751Z,2.00
2017-11-14T23:26:26.884Z,2.04
2017-11-14T23:28:53.443Z,1.98
2017-11-14T23:31:19.588Z,2.02
2017-11-14T23:33:45.730Z,1.97
2017-11-14T23:36:11.892Z,2.01
2017-11-14T23:38:37.997Z,2.14
2017-11-14T23:41:04.483Z,2.02
2017-11-14T23:43:30.616Z,2.09
2017-11-14T23:45:56.777Z,2.16
2017-11-14T23:48:23.409Z,2.18
2017-11-14T23:50:49.542Z,2.22
2017-11-14T23:53:15.691Z,2.16
2017-11-14T23:55:41.898Z,2.18
2017-11-14T23:58:08.030Z,2.18
